Aérodrome :
LOGIN :

S'inscrire | Disclaimer

   EN    FR    IT 

 










Légende :    VFR   VFR Marginal   IFR   IFR Intensif   IFR Très Intensif
Visi : 
Plafond : 
>= 8 km
>= 3000ft
5 à 8 km
1000 à 3000 ft
1500m à 5 km
500 à 1000 ft
800 à 1500m
200 à 500 ft
< 800m
< 200 ft
Symboles :   Orages  Brouillard  Fortes neiges  Fortes précipitations  Vent > 20 kt
SIGMETs :   Divers  Orages  Givrage  Turbulence  Onde Orograph.  Cendres Volcan.






- Altitude de l'aérodrome : 314 ft
- Code IATA : OTP


LROP - Bucarest - Henri Coanda

DERNIER METAR :
  • 010900Z 00000KT 0150 R08R/0300N R26L/0225N FG VV001 00/00 Q1026 R08R/29//95 NOSIG

METARs EXPIRÉS :
  • 010830Z 28002KT 0150 R08R/0250N R26L/0275N FZFG VV001 M01/M01 Q1026 R08R/29//95 BECMG 0350
  • 010800Z VRB01KT 0150 R08R/0275N R26L/0250N FZFG VV001 M01/M01 Q1026 R08R/29//95 BECMG 0350
  • 010730Z 29003KT 0150 R08R/0250N R26L/0250N FZFG VV001 M01/M01 Q1026 R08R/29//95 NOSIG
  • 010700Z 29003KT 0500 R08R/1000D R26L/0650N FZFG OVC001 M00/M00 Q1026 R08R/29//95 TEMPO 0350 FZFG
  • 010630Z VRB02KT 4000 BR BKN002 M00/M00 Q1026 R08R/29//95 TEMPO 3000 BR

TAF AMD TAF LROP
Valide du 01 à 09h jusqu'au 02 à 06h UTC


010908Z 0109/0206 VRB04KT 0150 FZFG VV001
BECMG 0109/0111 0350 FG VV002
PROB40
TEMPO 0111/0115 1500 BR BKN005
BECMG 0117/0119 0150 FZFG VV001



MET'MAP, la Météo Aéronautique d'un coup d'oeil ! - Copyright ORBIFLY Décembre 2007 - Disclaimer

ORBIFLY MET'MAP TEAM :

Programmation & Développement : Alexandra Zaïnal
Sur une idée originale de : Baudouin d'Aumeries
Assistance à la programmation : Marc-Olivier Méhu
Soutien technique & logistique : Manuel Goepfert

Contact : metmap@orbifly.com




SOURCES & CREDITS :

   NOAA